Worth, IL (60482)

10:25 AM CST on December 04, 2016 (GMT -0600)
Chicago Ridge Emergency Operations Center | | Change Station
Active Advisory: Winter Weather Advisory

Elev 600 ft 41.70 °N, 87.78 °W | Updated 4 seconds ago

Light Snow
Light Snow
34.2 °F
Feels Like 34 °F
N
0.0
Wind Variable Wind from ESE
Gusts 3.0 mph

Today
High -- | Low -- °F
--% Chance of Precip.
Yesterday
High -- | Low -- °F
Precip. -- in
Pressure 30.08 in
Visibility 3.0 miles
Clouds Mostly Cloudy 3200 ft
Overcast 4700 ft
Windchill 34 °F
Dew Point 29 °F
Humidity 82%
Rainfall 0.00 in
Snow Depth Not available.
7:02 AM 4:20 PM
Waxing Crescent, 23% visible
SPECI KMDW 041621Z 10004KT 3SM -SN BKN032 OVC047 01/M03 A3008 RMK AO2 P0000 T00111028
Pressure 30.08 in
Visibility 3.0 miles
Clouds Mostly Cloudy 3200 ft
Overcast 4700 ft
Windchill 34 °F
Dew Point 29 °F
Humidity 82%
Rainfall 0.00 in
Snow Depth Not available.
7:02 AM 4:20 PM
Waxing Crescent, 23% visible
SPECI KMDW 041621Z 10004KT 3SM -SN BKN032 OVC047 01/M03 A3008 RMK AO2 P0000 T00111028

10-Day Weather Forecast

Almanac

Astronomy

Dec. 04, 2016 Rise Set
Actual Time
Civil Twilight
Nautical Twilight
Astronomical Twilight
Moon
Length of Visible Light
Length of Day
Tomorrow will be .
, % of the Moon is Illuminated

Today's Extremes

State Highs State Lows

Community

WunderPhotos

Upload Photos

1,955,617 photos uploaded!

WunderBlog® & News

Nearby

Air Quality

  Air Quality AQ Index Pollutant
Not available.

Snow Depth

Station Depth Elevation

Earthquake Activity

City Distance Mag. Time & Date
Minimum magnitude displayed is 2.5.

Coastal Water Temperatures

Place Temperature

Stations

Nearby Weather Stations

Station Location Temp. Windchill Dew Point Humidity Wind Precip. Elev Updated Type
                   

Watches & Warnings

Winter Weather Advisory
Issued: 10:07 AM CST Dec. 4, 2016 – National Weather Service

... Winter Weather Advisory remains in effect until 6 PM CST this
evening...

* timing... snow will continue to increase in intensity through
midday... and should begin to taper around early evening.

* Snow accumulations... 2 to 5 inches of wet snow.

* Main impact... slippery conditions are expected on untreated
surfaces creating hazardous travel.

* Other impacts... visibility may fall to less than a half mile at
times causing an additional travel hazard.

* Note... impacts may be mitigated by mild Road temperatures on
heavily traveled roads... such as the immediate suburbs of the
city of Chicago.

Precautionary/preparedness actions...

A Winter Weather Advisory for snow means that periods of snow
will cause primarily travel difficulties. Be prepared for snow
covered roads and limited visibilities... and use caution while
driving.



Bmd